sensor_id;sensor_type;location;lat;lon;timestamp;P1;durP1;ratioP1;P2;durP2;ratioP2
78290;SDS011;67543;45.494;9.100;2023-03-23T06:26:15;11.30;;;8.18;;
78290;SDS011;67543;45.494;9.100;2023-03-23T06:28:42;15.25;;;7.90;;
78290;SDS011;67543;45.494;9.100;2023-03-23T06:31:07;12.45;;;8.38;;
78290;SDS011;67543;45.494;9.100;2023-03-23T06:33:33;14.40;;;9.30;;
78290;SDS011;67543;45.494;9.100;2023-03-23T06:36:00;11.60;;;7.63;;
78290;SDS011;67543;45.494;9.100;2023-03-23T06:38:26;12.00;;;8.15;;
78290;SDS011;67543;45.494;9.100;2023-03-23T06:40:53;9.90;;;7.95;;
78290;SDS011;67543;45.494;9.100;2023-03-23T06:43:19;13.00;;;7.68;;
78290;SDS011;67543;45.494;9.100;2023-03-23T06:45:45;11.68;;;7.05;;
78290;SDS011;67543;45.494;9.100;2023-03-23T06:48:11;12.50;;;7.70;;
78290;SDS011;67543;45.494;9.100;2023-03-23T06:50:37;11.43;;;7.68;;
78290;SDS011;67543;45.494;9.100;2023-03-23T06:53:02;10.60;;;7.30;;
78290;SDS011;67543;45.494;9.100;2023-03-23T06:55:28;11.57;;;7.53;;
78290;SDS011;67543;45.494;9.100;2023-03-23T06:57:53;12.95;;;8.10;;
78290;SDS011;67543;45.494;9.100;2023-03-23T07:00:18;9.32;;;6.18;;
78290;SDS011;67543;45.494;9.100;2023-03-23T07:02:44;9.90;;;7.40;;
78290;SDS011;67543;45.494;9.100;2023-03-23T07:05:10;10.63;;;7.28;;
78290;SDS011;67543;45.494;9.100;2023-03-23T07:07:37;12.35;;;7.10;;
78290;SDS011;67543;45.494;9.100;2023-03-23T07:10:04;12.68;;;7.78;;
78290;SDS011;67543;45.494;9.100;2023-03-23T07:12:30;10.93;;;7.55;;
78290;SDS011;67543;45.494;9.100;2023-03-23T07:14:55;9.73;;;6.90;;
78290;SDS011;67543;45.494;9.100;2023-03-23T07:17:21;10.10;;;7.18;;
78290;SDS011;67543;45.494;9.100;2023-03-23T07:19:46;10.57;;;7.10;;
78290;SDS011;67543;45.494;9.100;2023-03-23T07:22:12;11.65;;;7.28;;
78290;SDS011;67543;45.494;9.100;2023-03-23T07:24:37;14.00;;;7.80;;
78290;SDS011;67543;45.494;9.100;2023-03-23T07:27:03;10.40;;;7.80;;
78290;SDS011;67543;45.494;9.100;2023-03-23T07:29:30;9.23;;;7.35;;
78290;SDS011;67543;45.494;9.100;2023-03-23T07:31:56;11.88;;;6.97;;
78290;SDS011;67543;45.494;9.100;2023-03-23T07:34:21;8.88;;;6.47;;
78290;SDS011;67543;45.494;9.100;2023-03-23T07:36:47;9.75;;;6.68;;
78290;SDS011;67543;45.494;9.100;2023-03-23T07:39:13;8.73;;;6.13;;
78290;SDS011;67543;45.494;9.100;2023-03-23T07:41:41;10.27;;;6.50;;
78290;SDS011;67543;45.494;9.100;2023-03-23T07:44:06;9.90;;;7.05;;
78290;SDS011;67543;45.494;9.100;2023-03-23T07:46:32;9.18;;;6.28;;
78290;SDS011;67543;45.494;9.100;2023-03-23T07:48:58;10.95;;;7.28;;
78290;SDS011;67543;45.494;9.100;2023-03-23T07:51:26;9.18;;;6.25;;
78290;SDS011;67543;45.494;9.100;2023-03-23T07:53:52;6.50;;;5.82;;
78290;SDS011;67543;45.494;9.100;2023-03-23T07:56:18;8.60;;;6.32;;
78290;SDS011;67543;45.494;9.100;2023-03-23T07:58:47;7.40;;;6.70;;
78290;SDS011;67543;45.494;9.100;2023-03-23T08:01:14;7.10;;;5.68;;
78290;SDS011;67543;45.494;9.100;2023-03-23T08:03:41;7.30;;;6.07;;
78290;SDS011;67543;45.494;9.100;2023-03-23T08:06:07;7.88;;;5.57;;
78290;SDS011;67543;45.494;9.100;2023-03-23T08:08:33;9.90;;;7.05;;
78290;SDS011;67543;45.494;9.100;2023-03-23T08:10:58;14.82;;;5.82;;
78290;SDS011;67543;45.494;9.100;2023-03-23T08:13:24;7.43;;;6.60;;
78290;SDS011;67543;45.494;9.100;2023-03-23T08:15:49;7.82;;;6.28;;
78290;SDS011;67543;45.494;9.100;2023-03-23T08:18:15;9.52;;;6.20;;
78290;SDS011;67543;45.494;9.100;2023-03-23T08:20:40;8.02;;;6.15;;
78290;SDS011;67543;45.494;9.100;2023-03-23T08:23:05;7.78;;;5.25;;
78290;SDS011;67543;45.494;9.100;2023-03-23T08:25:31;11.75;;;5.40;;
78290;SDS011;67543;45.494;9.100;2023-03-23T08:27:57;7.45;;;5.20;;
78290;SDS011;67543;45.494;9.100;2023-03-23T08:30:23;10.30;;;6.18;;
78290;SDS011;67543;45.494;9.100;2023-03-23T08:32:51;8.02;;;5.25;;
78290;SDS011;67543;45.494;9.100;2023-03-23T08:35:18;7.50;;;5.50;;
78290;SDS011;67543;45.494;9.100;2023-03-23T08:37:44;7.43;;;5.35;;
78290;SDS011;67543;45.494;9.100;2023-03-23T08:40:11;8.95;;;5.85;;
78290;SDS011;67543;45.494;9.100;2023-03-23T08:42:39;8.63;;;5.90;;
78290;SDS011;67543;45.494;9.100;2023-03-23T08:45:09;11.90;;;7.93;;
78290;SDS011;67543;45.494;9.100;2023-03-23T08:47:36;9.13;;;5.78;;
78290;SDS011;67543;45.494;9.100;2023-03-23T08:50:03;12.20;;;7.57;;
78290;SDS011;67543;45.494;9.100;2023-03-23T08:52:29;11.93;;;7.18;;
78290;SDS011;67543;45.494;9.100;2023-03-23T08:54:55;10.43;;;7.05;;
78290;SDS011;67543;45.494;9.100;2023-03-23T08:57:22;11.50;;;7.45;;
78290;SDS011;67543;45.494;9.100;2023-03-23T08:59:48;12.98;;;7.13;;
78290;SDS011;67543;45.494;9.100;2023-03-23T09:02:13;13.50;;;6.70;;
78290;SDS011;67543;45.494;9.100;2023-03-23T09:04:39;11.05;;;6.72;;
78290;SDS011;67543;45.494;9.100;2023-03-23T09:07:07;10.65;;;7.63;;
78290;SDS011;67543;45.494;9.100;2023-03-23T09:09:37;8.80;;;6.95;;
78290;SDS011;67543;45.494;9.100;2023-03-23T09:12:04;7.82;;;6.80;;
78290;SDS011;67543;45.494;9.100;2023-03-23T09:14:30;10.15;;;6.82;;
78290;SDS011;67543;45.494;9.100;2023-03-23T09:16:56;9.07;;;6.25;;
78290;SDS011;67543;45.494;9.100;2023-03-23T09:19:22;8.25;;;5.35;;
78290;SDS011;67543;45.494;9.100;2023-03-23T09:21:48;8.23;;;5.63;;
78290;SDS011;67543;45.494;9.100;2023-03-23T09:24:15;8.60;;;4.82;;
78290;SDS011;67543;45.494;9.100;2023-03-23T09:26:40;7.65;;;5.65;;
78290;SDS011;67543;45.494;9.100;2023-03-23T09:29:06;8.35;;;6.07;;
78290;SDS011;67543;45.494;9.100;2023-03-23T09:31:31;7.32;;;4.10;;
78290;SDS011;67543;45.494;9.100;2023-03-23T09:33:56;7.50;;;5.32;;
78290;SDS011;67543;45.494;9.100;2023-03-23T09:36:24;6.75;;;4.43;;
78290;SDS011;67543;45.494;9.100;2023-03-23T09:38:50;6.30;;;5.20;;
78290;SDS011;67543;45.494;9.100;2023-03-23T09:49:43;6.63;;;5.80;;
78290;SDS011;67543;45.494;9.100;2023-03-23T09:52:15;10.02;;;6.00;;
78290;SDS011;67543;45.494;9.100;2023-03-23T09:54:51;8.23;;;6.50;;
78290;SDS011;67543;45.494;9.100;2023-03-23T09:57:29;7.60;;;5.50;;
78290;SDS011;67543;45.494;9.100;2023-03-23T10:00:08;7.07;;;6.05;;
78290;SDS011;67543;45.494;9.100;2023-03-23T10:03:25;9.32;;;6.82;;
78290;SDS011;67543;45.494;9.100;2023-03-23T10:07:59;12.23;;;6.78;;
78290;SDS011;67543;45.494;9.100;2023-03-23T10:10:33;13.48;;;5.75;;
78290;SDS011;67543;45.494;9.100;2023-03-23T10:16:24;10.35;;;6.65;;
78290;SDS011;67543;45.494;9.100;2023-03-23T10:18:58;10.23;;;7.43;;
78290;SDS011;67543;45.494;9.100;2023-03-23T10:21:30;9.90;;;7.25;;
78290;SDS011;67543;45.494;9.100;2023-03-23T10:24:04;11.35;;;6.47;;
78290;SDS011;67543;45.494;9.100;2023-03-23T10:29:11;12.75;;;7.60;;
78290;SDS011;67543;45.494;9.100;2023-03-23T10:31:48;8.48;;;7.28;;
78290;SDS011;67543;45.494;9.100;2023-03-23T10:34:24;9.52;;;6.20;;
78290;SDS011;67543;45.494;9.100;2023-03-23T10:39:32;9.88;;;7.63;;
78290;SDS011;67543;45.494;9.100;2023-03-23T10:42:04;11.63;;;7.90;;
78290;SDS011;67543;45.494;9.100;2023-03-23T10:44:32;11.35;;;6.75;;
78290;SDS011;67543;45.494;9.100;2023-03-23T10:47:00;11.68;;;8.02;;
78290;SDS011;67543;45.494;9.100;2023-03-23T10:58:03;8.68;;;6.60;;
78290;SDS011;67543;45.494;9.100;2023-03-23T11:00:39;9.80;;;6.32;;
78290;SDS011;67543;45.494;9.100;2023-03-23T11:03:20;13.48;;;8.23;;
78290;SDS011;67543;45.494;9.100;2023-03-23T11:05:53;12.68;;;7.97;;
78290;SDS011;67543;45.494;9.100;2023-03-23T11:08:30;8.05;;;6.70;;
78290;SDS011;67543;45.494;9.100;2023-03-23T11:11:14;8.82;;;6.90;;
78290;SDS011;67543;45.494;9.100;2023-03-23T11:13:46;9.85;;;7.47;;
78290;SDS011;67543;45.494;9.100;2023-03-23T11:16:23;11.00;;;8.75;;
78290;SDS011;67543;45.494;9.100;2023-03-23T11:18:50;12.32;;;8.95;;
78290;SDS011;67543;45.494;9.100;2023-03-23T11:21:17;12.40;;;9.77;;
78290;SDS011;67543;45.494;9.100;2023-03-23T11:23:43;12.68;;;9.20;;
78290;SDS011;67543;45.494;9.100;2023-03-23T11:28:51;10.57;;;8.48;;
78290;SDS011;67543;45.494;9.100;2023-03-23T11:31:22;14.65;;;8.30;;
78290;SDS011;67543;45.494;9.100;2023-03-23T11:33:59;15.93;;;8.15;;
78290;SDS011;67543;45.494;9.100;2023-03-23T11:36:31;11.75;;;9.32;;
78290;SDS011;67543;45.494;9.100;2023-03-23T11:38:59;12.43;;;8.77;;
78290;SDS011;67543;45.494;9.100;2023-03-23T11:41:25;9.15;;;7.13;;
78290;SDS011;67543;45.494;9.100;2023-03-23T11:43:56;12.77;;;9.18;;
78290;SDS011;67543;45.494;9.100;2023-03-23T11:46:36;12.93;;;8.05;;
78290;SDS011;67543;45.494;9.100;2023-03-23T11:51:58;11.57;;;7.95;;
78290;SDS011;67543;45.494;9.100;2023-03-23T11:54:36;14.48;;;7.88;;
78290;SDS011;67543;45.494;9.100;2023-03-23T11:57:06;12.95;;;9.05;;
78290;SDS011;67543;45.494;9.100;2023-03-23T11:59:35;11.75;;;8.30;;
78290;SDS011;67543;45.494;9.100;2023-03-23T12:02:17;15.77;;;9.30;;
78290;SDS011;67543;45.494;9.100;2023-03-23T12:11:08;13.88;;;9.20;;
78290;SDS011;67543;45.494;9.100;2023-03-23T12:19:03;15.38;;;8.88;;
78290;SDS011;67543;45.494;9.100;2023-03-23T12:43:20;9.45;;;6.50;;
78290;SDS011;67543;45.494;9.100;2023-03-23T12:49:07;9.40;;;7.35;;
78290;SDS011;67543;45.494;9.100;2023-03-23T12:51:45;9.85;;;6.40;;
78290;SDS011;67543;45.494;9.100;2023-03-23T12:56:53;10.27;;;8.15;;
78290;SDS011;67543;45.494;9.100;2023-03-23T12:59:36;10.40;;;7.10;;
78290;SDS011;67543;45.494;9.100;2023-03-23T13:07:10;10.63;;;7.00;;
78290;SDS011;67543;45.494;9.100;2023-03-23T13:09:59;10.73;;;7.63;;
78290;SDS011;67543;45.494;9.100;2023-03-23T13:12:29;13.25;;;8.45;;
78290;SDS011;67543;45.494;9.100;2023-03-23T13:28:01;8.05;;;6.35;;
78290;SDS011;67543;45.494;9.100;2023-03-23T13:30:27;8.57;;;6.88;;
78290;SDS011;67543;45.494;9.100;2023-03-23T13:33:01;11.10;;;6.63;;
78290;SDS011;67543;45.494;9.100;2023-03-23T13:35:33;13.40;;;8.00;;
78290;SDS011;67543;45.494;9.100;2023-03-23T13:38:00;9.48;;;6.72;;
78290;SDS011;67543;45.494;9.100;2023-03-23T13:40:26;8.80;;;6.50;;
78290;SDS011;67543;45.494;9.100;2023-03-23T13:42:55;13.13;;;7.65;;
78290;SDS011;67543;45.494;9.100;2023-03-23T13:48:04;7.88;;;7.07;;
78290;SDS011;67543;45.494;9.100;2023-03-23T13:53:28;10.20;;;7.53;;
78290;SDS011;67543;45.494;9.100;2023-03-23T13:56:18;18.02;;;7.68;;
78290;SDS011;67543;45.494;9.100;2023-03-23T14:01:39;11.68;;;7.22;;
78290;SDS011;67543;45.494;9.100;2023-03-23T14:04:07;9.57;;;7.20;;
78290;SDS011;67543;45.494;9.100;2023-03-23T14:06:38;8.68;;;7.03;;
78290;SDS011;67543;45.494;9.100;2023-03-23T14:09:10;11.30;;;7.95;;
78290;SDS011;67543;45.494;9.100;2023-03-23T14:11:44;14.98;;;8.80;;
78290;SDS011;67543;45.494;9.100;2023-03-23T14:14:26;10.30;;;8.02;;
78290;SDS011;67543;45.494;9.100;2023-03-23T14:17:05;9.15;;;6.90;;
78290;SDS011;67543;45.494;9.100;2023-03-23T14:19:38;9.70;;;7.00;;
78290;SDS011;67543;45.494;9.100;2023-03-23T14:22:14;9.73;;;7.07;;
78290;SDS011;67543;45.494;9.100;2023-03-23T14:24:44;9.20;;;7.20;;
78290;SDS011;67543;45.494;9.100;2023-03-23T14:27:20;13.18;;;6.85;;
78290;SDS011;67543;45.494;9.100;2023-03-23T14:29:57;18.42;;;7.55;;
78290;SDS011;67543;45.494;9.100;2023-03-23T14:32:28;10.98;;;6.25;;
78290;SDS011;67543;45.494;9.100;2023-03-23T14:34:56;11.90;;;7.00;;
78290;SDS011;67543;45.494;9.100;2023-03-23T14:37:22;8.70;;;6.28;;
78290;SDS011;67543;45.494;9.100;2023-03-23T14:39:48;9.65;;;6.50;;
78290;SDS011;67543;45.494;9.100;2023-03-23T14:42:19;8.88;;;6.80;;
78290;SDS011;67543;45.494;9.100;2023-03-23T14:44:52;5.95;;;4.90;;
78290;SDS011;67543;45.494;9.100;2023-03-23T14:47:20;8.75;;;5.20;;
78290;SDS011;67543;45.494;9.100;2023-03-23T14:49:48;7.03;;;5.22;;
78290;SDS011;67543;45.494;9.100;2023-03-23T14:52:18;8.55;;;5.35;;
78290;SDS011;67543;45.494;9.100;2023-03-23T14:54:44;10.70;;;6.57;;
78290;SDS011;67543;45.494;9.100;2023-03-23T14:57:18;9.80;;;5.43;;
78290;SDS011;67543;45.494;9.100;2023-03-23T14:59:45;11.65;;;5.38;;
78290;SDS011;67543;45.494;9.100;2023-03-23T15:02:14;8.13;;;5.07;;
78290;SDS011;67543;45.494;9.100;2023-03-23T15:04:40;6.95;;;5.07;;
78290;SDS011;67543;45.494;9.100;2023-03-23T15:07:05;6.45;;;4.85;;
78290;SDS011;67543;45.494;9.100;2023-03-23T15:09:31;6.88;;;4.75;;
78290;SDS011;67543;45.494;9.100;2023-03-23T15:12:01;8.10;;;5.32;;
78290;SDS011;67543;45.494;9.100;2023-03-23T15:14:29;6.20;;;4.70;;
78290;SDS011;67543;45.494;9.100;2023-03-23T15:16:57;8.68;;;6.15;;
78290;SDS011;67543;45.494;9.100;2023-03-23T15:19:28;8.68;;;5.78;;
78290;SDS011;67543;45.494;9.100;2023-03-23T15:22:06;10.90;;;5.10;;
78290;SDS011;67543;45.494;9.100;2023-03-23T15:24:51;8.13;;;5.85;;
78290;SDS011;67543;45.494;9.100;2023-03-23T15:27:27;5.72;;;4.20;;
78290;SDS011;67543;45.494;9.100;2023-03-23T15:29:58;7.75;;;5.50;;
78290;SDS011;67543;45.494;9.100;2023-03-23T15:32:39;6.57;;;5.57;;
78290;SDS011;67543;45.494;9.100;2023-03-23T15:35:20;8.98;;;5.50;;
78290;SDS011;67543;45.494;9.100;2023-03-23T15:37:48;5.50;;;3.97;;
78290;SDS011;67543;45.494;9.100;2023-03-23T15:40:21;8.82;;;5.15;;
78290;SDS011;67543;45.494;9.100;2023-03-23T15:42:48;5.57;;;5.03;;
78290;SDS011;67543;45.494;9.100;2023-03-23T15:50:13;7.00;;;5.68;;
78290;SDS011;67543;45.494;9.100;2023-03-23T15:52:39;6.40;;;4.35;;
78290;SDS011;67543;45.494;9.100;2023-03-23T15:55:18;9.18;;;5.55;;
78290;SDS011;67543;45.494;9.100;2023-03-23T15:57:47;10.90;;;6.60;;
78290;SDS011;67543;45.494;9.100;2023-03-23T16:00:15;12.20;;;6.68;;
78290;SDS011;67543;45.494;9.100;2023-03-23T16:02:41;7.93;;;5.72;;
78290;SDS011;67543;45.494;9.100;2023-03-23T16:05:09;11.10;;;6.25;;
78290;SDS011;67543;45.494;9.100;2023-03-23T16:07:36;8.57;;;5.57;;
78290;SDS011;67543;45.494;9.100;2023-03-23T16:10:02;8.73;;;5.93;;
78290;SDS011;67543;45.494;9.100;2023-03-23T16:12:28;11.20;;;6.50;;
78290;SDS011;67543;45.494;9.100;2023-03-23T16:14:54;11.57;;;6.05;;
78290;SDS011;67543;45.494;9.100;2023-03-23T16:17:19;11.82;;;5.90;;
78290;SDS011;67543;45.494;9.100;2023-03-23T16:19:45;12.90;;;6.07;;
78290;SDS011;67543;45.494;9.100;2023-03-23T16:22:11;14.00;;;6.75;;
78290;SDS011;67543;45.494;9.100;2023-03-23T16:24:36;8.38;;;5.78;;
78290;SDS011;67543;45.494;9.100;2023-03-23T16:27:02;8.35;;;6.90;;
78290;SDS011;67543;45.494;9.100;2023-03-23T16:29:27;12.25;;;6.20;;
78290;SDS011;67543;45.494;9.100;2023-03-23T16:31:53;9.98;;;5.85;;
78290;SDS011;67543;45.494;9.100;2023-03-23T16:34:18;7.85;;;5.28;;
78290;SDS011;67543;45.494;9.100;2023-03-23T16:36:44;9.13;;;5.60;;
78290;SDS011;67543;45.494;9.100;2023-03-23T16:39:12;13.90;;;6.57;;
78290;SDS011;67543;45.494;9.100;2023-03-23T16:41:39;7.50;;;6.28;;
78290;SDS011;67543;45.494;9.100;2023-03-23T16:44:05;9.30;;;5.97;;
78290;SDS011;67543;45.494;9.100;2023-03-23T16:46:30;9.20;;;6.72;;
78290;SDS011;67543;45.494;9.100;2023-03-23T16:48:56;9.90;;;6.38;;
78290;SDS011;67543;45.494;9.100;2023-03-23T16:51:21;11.07;;;5.95;;
78290;SDS011;67543;45.494;9.100;2023-03-23T16:53:47;10.95;;;5.63;;
78290;SDS011;67543;45.494;9.100;2023-03-23T16:56:12;6.85;;;5.43;;
78290;SDS011;67543;45.494;9.100;2023-03-23T16:58:37;12.43;;;7.22;;
78290;SDS011;67543;45.494;9.100;2023-03-23T17:01:03;9.05;;;5.95;;
78290;SDS011;67543;45.494;9.100;2023-03-23T17:03:30;11.18;;;5.72;;
78290;SDS011;67543;45.494;9.100;2023-03-23T17:05:55;10.70;;;5.72;;
78290;SDS011;67543;45.494;9.100;2023-03-23T17:08:20;9.85;;;5.10;;
78290;SDS011;67543;45.494;9.100;2023-03-23T17:10:46;9.80;;;5.32;;
78290;SDS011;67543;45.494;9.100;2023-03-23T17:13:12;9.63;;;5.47;;
78290;SDS011;67543;45.494;9.100;2023-03-23T17:15:38;8.43;;;5.03;;
78290;SDS011;67543;45.494;9.100;2023-03-23T17:18:04;5.75;;;4.68;;
78290;SDS011;67543;45.494;9.100;2023-03-23T17:20:30;8.57;;;4.50;;
78290;SDS011;67543;45.494;9.100;2023-03-23T17:22:55;7.50;;;5.97;;
78290;SDS011;67543;45.494;9.100;2023-03-23T17:25:21;5.40;;;4.35;;
78290;SDS011;67543;45.494;9.100;2023-03-23T17:27:46;6.88;;;4.13;;
78290;SDS011;67543;45.494;9.100;2023-03-23T17:30:12;9.35;;;4.15;;
78290;SDS011;67543;45.494;9.100;2023-03-23T17:32:37;5.25;;;4.43;;
78290;SDS011;67543;45.494;9.100;2023-03-23T17:35:03;12.07;;;5.35;;
78290;SDS011;67543;45.494;9.100;2023-03-23T17:37:29;9.57;;;4.30;;
78290;SDS011;67543;45.494;9.100;2023-03-23T17:39:55;7.47;;;3.97;;
78290;SDS011;67543;45.494;9.100;2023-03-23T17:42:20;5.07;;;3.53;;
78290;SDS011;67543;45.494;9.100;2023-03-23T17:44:46;5.43;;;3.22;;
78290;SDS011;67543;45.494;9.100;2023-03-23T17:47:11;6.25;;;3.40;;
78290;SDS011;67543;45.494;9.100;2023-03-23T17:49:37;5.80;;;3.35;;
78290;SDS011;67543;45.494;9.100;2023-03-23T17:52:02;6.43;;;2.58;;
78290;SDS011;67543;45.494;9.100;2023-03-23T17:54:28;5.18;;;3.55;;
78290;SDS011;67543;45.494;9.100;2023-03-23T17:56:55;6.72;;;3.13;;
78290;SDS011;67543;45.494;9.100;2023-03-23T17:59:22;3.75;;;2.65;;
78290;SDS011;67543;45.494;9.100;2023-03-23T18:01:51;3.75;;;2.95;;
78290;SDS011;67543;45.494;9.100;2023-03-23T18:04:17;7.57;;;3.17;;
78290;SDS011;67543;45.494;9.100;2023-03-23T18:06:43;5.82;;;3.65;;
78290;SDS011;67543;45.494;9.100;2023-03-23T18:09:08;4.97;;;3.22;;
78290;SDS011;67543;45.494;9.100;2023-03-23T18:11:34;10.82;;;3.80;;
78290;SDS011;67543;45.494;9.100;2023-03-23T18:13:59;5.50;;;3.67;;
78290;SDS011;67543;45.494;9.100;2023-03-23T18:16:25;5.97;;;3.22;;
78290;SDS011;67543;45.494;9.100;2023-03-23T18:18:50;6.45;;;3.05;;
78290;SDS011;67543;45.494;9.100;2023-03-23T18:21:16;5.15;;;3.67;;
78290;SDS011;67543;45.494;9.100;2023-03-23T18:23:41;5.18;;;4.57;;
78290;SDS011;67543;45.494;9.100;2023-03-23T18:26:08;5.90;;;4.25;;
78290;SDS011;67543;45.494;9.100;2023-03-23T18:28:35;9.23;;;3.83;;
78290;SDS011;67543;45.494;9.100;2023-03-23T18:31:04;6.07;;;3.20;;
78290;SDS011;67543;45.494;9.100;2023-03-23T18:33:31;7.60;;;3.50;;
78290;SDS011;67543;45.494;9.100;2023-03-23T18:35:58;4.45;;;3.38;;
78290;SDS011;67543;45.494;9.100;2023-03-23T18:38:24;5.03;;;3.45;;
78290;SDS011;67543;45.494;9.100;2023-03-23T18:40:50;7.50;;;4.07;;
78290;SDS011;67543;45.494;9.100;2023-03-23T18:43:15;6.90;;;3.63;;
78290;SDS011;67543;45.494;9.100;2023-03-23T18:45:41;7.88;;;3.03;;
78290;SDS011;67543;45.494;9.100;2023-03-23T18:48:06;7.07;;;3.30;;
78290;SDS011;67543;45.494;9.100;2023-03-23T18:50:33;6.10;;;3.92;;
78290;SDS011;67543;45.494;9.100;2023-03-23T18:52:58;6.88;;;3.70;;
78290;SDS011;67543;45.494;9.100;2023-03-23T18:55:24;5.95;;;3.72;;
78290;SDS011;67543;45.494;9.100;2023-03-23T18:57:49;7.88;;;3.53;;
78290;SDS011;67543;45.494;9.100;2023-03-23T19:00:15;7.00;;;3.88;;
78290;SDS011;67543;45.494;9.100;2023-03-23T19:02:41;7.90;;;4.00;;
78290;SDS011;67543;45.494;9.100;2023-03-23T19:05:06;5.60;;;4.40;;
78290;SDS011;67543;45.494;9.100;2023-03-23T19:07:33;6.45;;;3.70;;
78290;SDS011;67543;45.494;9.100;2023-03-23T19:09:59;6.25;;;4.15;;
78290;SDS011;67543;45.494;9.100;2023-03-23T19:12:24;7.10;;;3.88;;
78290;SDS011;67543;45.494;9.100;2023-03-23T19:14:50;5.25;;;4.18;;
78290;SDS011;67543;45.494;9.100;2023-03-23T19:17:16;4.80;;;4.28;;
78290;SDS011;67543;45.494;9.100;2023-03-23T19:19:42;7.95;;;3.60;;
78290;SDS011;67543;45.494;9.100;2023-03-23T19:22:08;6.72;;;3.92;;
78290;SDS011;67543;45.494;9.100;2023-03-23T19:24:34;5.03;;;3.78;;
78290;SDS011;67543;45.494;9.100;2023-03-23T19:27:00;7.55;;;4.20;;
78290;SDS011;67543;45.494;9.100;2023-03-23T19:29:25;6.85;;;3.70;;
78290;SDS011;67543;45.494;9.100;2023-03-23T19:31:51;8.38;;;4.35;;
78290;SDS011;67543;45.494;9.100;2023-03-23T19:34:17;8.55;;;3.92;;
78290;SDS011;67543;45.494;9.100;2023-03-23T19:36:42;7.82;;;5.53;;
78290;SDS011;67543;45.494;9.100;2023-03-23T19:39:11;7.85;;;4.65;;
78290;SDS011;67543;45.494;9.100;2023-03-23T19:41:36;6.38;;;4.32;;
78290;SDS011;67543;45.494;9.100;2023-03-23T19:44:02;5.10;;;3.90;;
78290;SDS011;67543;45.494;9.100;2023-03-23T19:46:28;6.90;;;4.75;;
78290;SDS011;67543;45.494;9.100;2023-03-23T19:48:54;13.43;;;9.95;;
78290;SDS011;67543;45.494;9.100;2023-03-23T19:51:20;9.50;;;4.93;;
78290;SDS011;67543;45.494;9.100;2023-03-23T19:53:46;8.10;;;4.63;;
78290;SDS011;67543;45.494;9.100;2023-03-23T19:56:13;8.35;;;4.60;;
78290;SDS011;67543;45.494;9.100;2023-03-23T19:58:40;7.13;;;5.25;;
78290;SDS011;67543;45.494;9.100;2023-03-23T20:01:05;5.93;;;4.45;;
78290;SDS011;67543;45.494;9.100;2023-03-23T20:03:31;6.93;;;4.32;;
78290;SDS011;67543;45.494;9.100;2023-03-23T20:06:00;6.05;;;3.85;;
78290;SDS011;67543;45.494;9.100;2023-03-23T20:08:27;7.43;;;4.53;;
78290;SDS011;67543;45.494;9.100;2023-03-23T20:10:59;5.60;;;3.75;;
78290;SDS011;67543;45.494;9.100;2023-03-23T20:13:31;7.53;;;4.95;;
78290;SDS011;67543;45.494;9.100;2023-03-23T20:15:57;7.97;;;4.85;;
78290;SDS011;67543;45.494;9.100;2023-03-23T20:18:23;5.55;;;4.93;;
78290;SDS011;67543;45.494;9.100;2023-03-23T20:20:48;5.57;;;4.18;;
78290;SDS011;67543;45.494;9.100;2023-03-23T20:23:13;7.60;;;5.32;;
78290;SDS011;67543;45.494;9.100;2023-03-23T20:25:39;7.65;;;5.20;;
78290;SDS011;67543;45.494;9.100;2023-03-23T20:28:04;7.45;;;4.82;;
78290;SDS011;67543;45.494;9.100;2023-03-23T20:30:30;5.90;;;4.70;;
78290;SDS011;67543;45.494;9.100;2023-03-23T20:32:55;5.22;;;4.65;;
78290;SDS011;67543;45.494;9.100;2023-03-23T20:35:24;6.93;;;3.97;;
78290;SDS011;67543;45.494;9.100;2023-03-23T20:37:50;8.25;;;4.15;;
78290;SDS011;67543;45.494;9.100;2023-03-23T20:40:16;9.27;;;4.65;;
78290;SDS011;67543;45.494;9.100;2023-03-23T20:42:42;9.10;;;4.38;;
78290;SDS011;67543;45.494;9.100;2023-03-23T20:45:09;7.10;;;4.55;;
78290;SDS011;67543;45.494;9.100;2023-03-23T20:47:36;5.78;;;4.28;;
78290;SDS011;67543;45.494;9.100;2023-03-23T20:50:02;7.25;;;4.28;;
78290;SDS011;67543;45.494;9.100;2023-03-23T20:52:27;7.55;;;4.78;;
78290;SDS011;67543;45.494;9.100;2023-03-23T20:54:53;6.72;;;4.57;;
78290;SDS011;67543;45.494;9.100;2023-03-23T20:57:19;6.57;;;4.05;;
78290;SDS011;67543;45.494;9.100;2023-03-23T20:59:46;9.00;;;4.13;;
78290;SDS011;67543;45.494;9.100;2023-03-23T21:02:12;6.45;;;4.43;;
78290;SDS011;67543;45.494;9.100;2023-03-23T21:04:40;6.85;;;3.83;;
78290;SDS011;67543;45.494;9.100;2023-03-23T21:07:07;16.23;;;9.98;;
78290;SDS011;67543;45.494;9.100;2023-03-23T21:09:33;17.50;;;11.10;;
78290;SDS011;67543;45.494;9.100;2023-03-23T21:11:59;10.18;;;7.63;;
78290;SDS011;67543;45.494;9.100;2023-03-23T21:14:30;7.35;;;4.57;;
78290;SDS011;67543;45.494;9.100;2023-03-23T21:16:56;7.10;;;4.90;;
78290;SDS011;67543;45.494;9.100;2023-03-23T21:19:22;7.55;;;5.07;;
78290;SDS011;67543;45.494;9.100;2023-03-23T21:21:48;6.78;;;5.43;;
78290;SDS011;67543;45.494;9.100;2023-03-23T21:24:14;8.63;;;4.93;;
